Time;durP1;ratioP1;P1;durP2;ratioP2;P2;SDS_P1;SDS_P2;PMS_P1;PMS_P2;Temp;Humidity;BMP_temperature;BMP_pressure;BME280_temperature;BME280_humidity;BME280_pressure;Samples;Min_cycle;Max_cycle;Signal;HPM_P1;HPM_P2
2023/07/12 00:00:30;;;;;;;3.93;1.70;;;;;;;18.19;100.00;100702.56;4957758;28;20042;-86
2023/07/12 00:02:56;;;;;;;4.63;1.50;;;;;;;18.16;100.00;100692.13;4957338;28;20383;-86
2023/07/12 00:05:25;;;;;;;2.83;1.33;;;;;;;18.15;100.00;100698.72;4957746;28;20058;-86
2023/07/12 00:07:51;;;;;;;3.97;1.75;;;;;;;18.16;100.00;100696.78;4975049;28;20023;-86
2023/07/12 00:10:28;;;;;;;3.70;1.60;;;;;;;18.15;100.00;100686.91;4941592;28;20035;-87
2023/07/12 00:12:54;;;;;;;3.88;1.73;;;;;;;18.15;100.00;100697.91;4974284;28;20459;-87
2023/07/12 00:15:25;;;;;;;3.40;1.60;;;;;;;18.16;100.00;100707.75;4957424;28;20034;-87
2023/07/12 00:17:52;;;;;;;3.50;1.70;;;;;;;18.26;100.00;100721.53;4956873;28;20047;-87
2023/07/12 00:20:34;;;;;;;3.50;2.03;;;;;;;18.29;100.00;100736.66;4975020;28;20033;-86
2023/07/12 00:23:00;;;;;;;4.97;2.03;;;;;;;18.25;100.00;100744.59;4974689;28;20472;-87
2023/07/12 00:25:29;;;;;;;5.13;2.30;;;;;;;18.18;100.00;100739.34;4957535;28;20056;-87
2023/07/12 00:27:55;;;;;;;3.65;2.00;;;;;;;18.15;100.00;100734.41;4941202;28;20082;-86
2023/07/12 00:30:27;;;;;;;4.18;2.08;;;;;;;18.09;100.00;100748.41;4974975;28;20034;-87
2023/07/12 00:32:55;;;;;;;3.78;1.90;;;;;;;18.03;100.00;100755.78;4957401;28;20035;-86
2023/07/12 00:35:24;;;;;;;6.63;2.10;;;;;;;17.98;100.00;100763.97;4957246;28;20367;-86
2023/07/12 00:37:55;;;;;;;5.82;2.22;;;;;;;17.99;100.00;100769.19;4957255;28;20498;-87
2023/07/12 00:40:39;;;;;;;5.55;2.35;;;;;;;17.97;100.00;100773.31;4957449;28;20038;-87
2023/07/12 00:43:25;;;;;;;4.82;2.00;;;;;;;17.98;100.00;100772.22;4957166;28;20125;-87
2023/07/12 00:45:53;;;;;;;3.95;1.85;;;;;;;17.95;100.00;100776.34;4957426;28;20122;-86
2023/07/12 00:48:19;;;;;;;5.47;2.17;;;;;;;17.97;100.00;100776.88;4957235;28;20039;-86
2023/07/12 00:50:48;;;;;;;3.97;1.90;;;;;;;17.97;100.00;100774.13;4957142;28;20081;-86
2023/07/12 00:53:19;;;;;;;8.02;2.50;;;;;;;17.96;100.00;100777.97;4957256;28;20038;-87
2023/07/12 00:55:56;;;;;;;3.88;2.03;;;;;;;17.96;100.00;100783.47;4957106;28;20039;-87
2023/07/12 00:58:32;;;;;;;7.43;2.40;;;;;;;17.93;100.00;100772.19;4956802;28;20046;-86
2023/07/12 01:01:03;;;;;;;5.67;2.20;;;;;;;17.90;99.73;100792.75;4957250;28;20085;-86
2023/07/12 01:03:31;;;;;;;6.03;2.50;;;;;;;17.86;99.64;100805.31;4974492;28;20027;-86
2023/07/12 01:05:59;;;;;;;6.80;2.60;;;;;;;17.83;100.00;100812.19;4974361;28;20074;-86
2023/07/12 01:08:27;;;;;;;9.40;2.90;;;;;;;17.83;100.00;100812.19;4941989;28;20039;-86
2023/07/12 01:10:53;;;;;;;6.22;3.00;;;;;;;17.81;100.00;100822.59;4956969;28;20070;-86
2023/07/12 01:13:21;;;;;;;6.60;2.60;;;;;;;17.74;100.00;100783.56;4940387;28;20035;-86
2023/07/12 01:15:47;;;;;;;6.07;2.83;;;;;;;17.74;100.00;100760.81;4974323;28;20193;-86
2023/07/12 01:18:12;;;;;;;7.43;2.72;;;;;;;17.66;100.00;100764.88;4957027;28;20129;-86
2023/07/12 01:20:40;;;;;;;7.17;3.00;;;;;;;17.68;100.00;100773.66;4957035;28;20038;-86
2023/07/12 01:23:06;;;;;;;6.05;2.80;;;;;;;17.64;100.00;100742.34;4956909;28;20031;-90
2023/07/12 01:25:36;;;;;;;9.80;3.10;;;;;;;17.56;100.00;100764.81;4957495;28;20349;-90
2023/07/12 01:28:04;;;;;;;7.50;2.90;;;;;;;17.49;100.00;100767.78;4974313;28;20038;-90
2023/07/12 01:30:31;;;;;;;8.93;3.45;;;;;;;17.29;100.00;100776.69;4958066;28;20126;-92
2023/07/12 01:32:56;;;;;;;7.18;3.42;;;;;;;16.87;100.00;100759.03;4960674;28;20035;-93
2023/07/12 01:35:25;;;;;;;8.87;3.47;;;;;;;16.52;100.00;100754.00;4979187;28;20420;-93
2023/07/12 01:37:51;;;;;;;9.02;3.28;;;;;;;16.27;100.00;100769.91;4961394;28;20073;-93
2023/07/12 01:40:36;;;;;;;7.13;3.08;;;;;;;16.01;100.00;100787.91;4961207;28;20551;-92
2023/07/12 01:43:04;;;;;;;11.37;4.27;;;;;;;15.71;100.00;100758.19;4960890;28;20129;-92
2023/07/12 01:45:29;;;;;;;7.28;3.58;;;;;;;15.69;100.00;100747.47;4977941;28;20063;-92
2023/07/12 01:47:58;;;;;;;8.67;4.17;;;;;;;15.72;100.00;100733.31;4977817;28;20054;-93
2023/07/12 01:50:23;;;;;;;7.45;3.47;;;;;;;15.67;100.00;100732.44;4961399;28;20478;-93
2023/07/12 01:52:51;;;;;;;7.55;3.80;;;;;;;15.68;100.00;100742.25;4960417;28;20031;-92
2023/07/12 01:55:18;;;;;;;9.80;4.63;;;;;;;15.63;100.00;100747.69;4929302;28;20042;-92
2023/07/12 01:57:44;;;;;;;8.25;4.45;;;;;;;15.56;100.00;100737.75;4960338;28;20078;-92
2023/07/12 02:00:30;;;;;;;13.40;4.63;;;;;;;15.57;100.00;100744.84;4944574;28;20066;-92
2023/07/12 02:03:16;;;;;;;13.80;4.40;;;;;;;15.50;100.00;100730.56;4960837;28;20034;-92
2023/07/12 02:05:44;;;;;;;10.07;4.78;;;;;;;15.41;100.00;100735.63;4960798;28;20062;-93
2023/07/12 02:08:11;;;;;;;13.50;5.20;;;;;;;15.47;100.00;100722.00;4943636;28;20070;-92
2023/07/12 02:10:37;;;;;;;13.00;5.28;;;;;;;15.41;100.00;100696.50;4960154;28;20390;-92
2023/07/12 02:13:05;;;;;;;11.77;5.10;;;;;;;15.46;100.00;100688.38;4960369;28;20042;-92
2023/07/12 02:15:31;;;;;;;14.63;5.60;;;;;;;15.51;100.00;100753.25;4960090;28;20129;-92
2023/07/12 02:18:10;;;;;;;12.32;5.13;;;;;;;15.41;100.00;100778.50;4960178;28;20487;-92
2023/07/12 02:20:39;;;;;;;14.95;5.10;;;;;;;15.34;100.00;100788.78;4944523;28;20471;-93
2023/07/12 02:23:09;;;;;;;10.40;5.00;;;;;;;15.29;100.00;100789.53;4960266;28;20113;-93
2023/07/12 02:25:38;;;;;;;10.18;4.60;;;;;;;15.21;100.00;100779.84;4944375;28;20126;-94
2023/07/12 02:28:08;;;;;;;9.13;4.68;;;;;;;15.19;100.00;100775.69;4959745;28;20058;-93
2023/07/12 02:30:36;;;;;;;12.25;5.07;;;;;;;15.16;100.00;100737.94;4945146;28;20077;-93
2023/07/12 02:33:04;;;;;;;10.23;4.20;;;;;;;15.05;100.00;100748.69;4960340;28;20038;-93
2023/07/12 02:35:32;;;;;;;9.93;4.43;;;;;;;15.03;100.00;100753.59;4959888;28;20030;-93
2023/07/12 02:38:01;;;;;;;9.43;4.05;;;;;;;14.96;100.00;100754.84;4959978;28;20383;-93
2023/07/12 02:40:30;;;;;;;11.88;4.13;;;;;;;14.95;100.00;100745.78;4959953;28;20043;-94
2023/07/12 02:43:03;;;;;;;10.63;4.65;;;;;;;14.98;100.00;100764.44;4959705;28;20035;-94
2023/07/12 02:45:31;;;;;;;11.15;4.78;;;;;;;14.96;100.00;100758.38;4944968;28;20031;-94
2023/07/12 02:47:56;;;;;;;10.00;4.30;;;;;;;14.91;100.00;100750.09;4960381;28;20470;-94
2023/07/12 02:50:27;;;;;;;8.18;4.10;;;;;;;14.86;100.00;100760.94;4943773;28;20038;-93
2023/07/12 02:53:13;;;;;;;9.80;4.33;;;;;;;14.82;100.00;100760.63;4959465;28;20498;-92
2023/07/12 02:55:38;;;;;;;8.27;3.67;;;;;;;14.78;100.00;100758.59;4976964;28;20115;-92
2023/07/12 02:58:04;;;;;;;6.78;3.80;;;;;;;14.71;100.00;100759.59;4961375;28;20487;-92
2023/07/12 03:00:29;;;;;;;11.27;4.27;;;;;;;14.76;100.00;100774.41;4960081;28;20431;-93
2023/07/12 03:02:55;;;;;;;7.27;3.43;;;;;;;14.76;100.00;100771.69;4959206;28;20031;-93
2023/07/12 03:05:22;;;;;;;10.65;4.40;;;;;;;14.74;100.00;100767.28;4960296;28;20363;-93
2023/07/12 03:07:50;;;;;;;9.13;3.50;;;;;;;14.73;100.00;100768.38;4959863;28;20459;-92
2023/07/12 03:10:15;;;;;;;7.00;3.80;;;;;;;14.74;100.00;100780.13;4959303;28;20132;-92
2023/07/12 03:12:41;;;;;;;9.83;3.50;;;;;;;14.74;100.00;100775.47;4976457;28;20116;-93
2023/07/12 03:15:16;;;;;;;10.80;3.47;;;;;;;14.74;100.00;100785.59;4959168;28;20023;-93
2023/07/12 03:17:51;;;;;;;9.07;3.72;;;;;;;14.73;100.00;100782.03;4959450;28;20042;-93
2023/07/12 03:20:24;;;;;;;6.63;3.08;;;;;;;14.67;100.00;100772.06;4943055;28;20039;-92
2023/07/12 03:22:50;;;;;;;8.10;3.08;;;;;;;14.71;100.00;100783.34;4959761;28;20037;-92
2023/07/12 03:25:15;;;;;;;6.97;3.50;;;;;;;14.70;100.00;100773.50;4976183;28;20030;-93
2023/07/12 03:27:53;;;;;;;;;;;;;;;;;;;;;
2023/07/12 03:30:19;;;;;;;6.63;3.43;;;;;;;14.74;100.00;100789.13;4977049;28;20270;-93
2023/07/12 03:32:52;;;;;;;9.02;3.60;;;;;;;14.71;100.00;100786.06;4959050;28;20122;-92
2023/07/12 03:35:22;;;;;;;7.80;3.80;;;;;;;14.75;100.00;100806.38;4943377;28;20035;-92
2023/07/12 03:37:53;;;;;;;7.03;3.87;;;;;;;14.76;100.00;100804.47;4959411;28;20062;-92
2023/07/12 03:40:22;;;;;;;9.60;4.03;;;;;;;14.71;100.00;100806.00;4959305;28;20105;-92
2023/07/12 03:42:47;;;;;;;6.00;3.70;;;;;;;14.69;100.00;100799.13;4958439;28;20035;-92
2023/07/12 03:45:15;;;;;;;9.65;3.95;;;;;;;14.64;100.00;100807.25;4958414;28;20039;-92
2023/07/12 03:47:46;;;;;;;8.83;4.60;;;;;;;14.59;100.00;100807.13;4943145;28;20035;-92
2023/07/12 03:50:14;;;;;;;14.13;4.95;;;;;;;14.62;100.00;100803.94;4958250;28;20069;-91
2023/07/12 03:52:39;;;;;;;9.27;4.57;;;;;;;14.61;100.00;100807.69;4957836;28;20105;-91
2023/07/12 03:55:07;;;;;;;9.47;5.07;;;;;;;14.57;100.00;100812.78;4958153;28;20472;-91
2023/07/12 03:57:33;;;;;;;11.40;4.60;;;;;;;14.60;100.00;100822.41;4957542;28;20130;-91
2023/07/12 04:00:01;;;;;;;9.70;5.03;;;;;;;14.56;100.00;100813.88;4957988;28;20096;-91
2023/07/12 04:02:27;;;;;;;11.02;5.18;;;;;;;14.52;100.00;100812.72;4975078;28;20034;-91
2023/07/12 04:04:52;;;;;;;11.23;4.80;;;;;;;14.52;100.00;100842.75;4958214;28;20542;-91
2023/07/12 04:07:20;;;;;;;12.90;5.23;;;;;;;14.45;100.00;100823.75;4975031;28;20110;-91
2023/07/12 04:09:47;;;;;;;11.48;4.90;;;;;;;14.43;100.00;100815.00;4957786;28;20034;-91
2023/07/12 04:12:19;;;;;;;12.20;5.45;;;;;;;14.51;100.00;100821.97;4941605;28;20055;-90
2023/07/12 04:14:48;;;;;;;9.15;4.68;;;;;;;14.49;100.00;100821.38;4975146;28;20030;-91
2023/07/12 04:17:16;;;;;;;11.53;4.57;;;;;;;14.46;100.00;100830.88;4975308;28;20113;-91
2023/07/12 04:19:50;;;;;;;14.82;5.13;;;;;;;14.44;100.00;100840.38;4957902;28;20387;-90
2023/07/12 04:22:18;;;;;;;9.52;5.32;;;;;;;14.42;100.00;100835.16;4958306;28;20030;-91
2023/07/12 04:24:53;;;;;;;17.08;5.45;;;;;;;14.41;100.00;100829.94;4958299;28;20034;-90
2023/07/12 04:27:23;;;;;;;13.77;5.40;;;;;;;14.42;100.00;100843.34;4942098;28;20065;-90
2023/07/12 04:29:51;;;;;;;10.37;4.40;;;;;;;14.47;100.00;100840.75;4975130;28;20037;-90
2023/07/12 04:32:19;;;;;;;15.43;5.45;;;;;;;14.41;100.00;100832.66;4957559;28;20082;-90
2023/07/12 04:34:53;;;;;;;8.38;4.45;;;;;;;14.44;100.00;100826.72;4957595;28;20126;-90
2023/07/12 04:37:26;;;;;;;12.55;4.28;;;;;;;14.48;100.00;100831.50;4957369;28;20035;-90
2023/07/12 04:39:52;;;;;;;9.55;4.10;;;;;;;14.52;100.00;100835.38;4958119;28;20035;-90
2023/07/12 04:42:18;;;;;;;11.10;3.93;;;;;;;14.48;100.00;100825.19;4957176;28;20027;-90
2023/07/12 04:44:46;;;;;;;10.13;3.90;;;;;;;14.48;100.00;100826.03;4957703;28;20058;-90
2023/07/12 04:47:14;;;;;;;11.88;3.92;;;;;;;14.44;100.00;100822.13;4957520;28;20062;-90
2023/07/12 04:49:44;;;;;;;7.23;3.50;;;;;;;14.47;100.00;100829.00;4957444;28;20034;-90
2023/07/12 04:52:22;;;;;;;13.25;3.78;;;;;;;14.45;100.00;100825.66;4957401;28;20077;-90
2023/07/12 04:54:47;;;;;;;6.82;3.40;;;;;;;14.45;100.00;100831.94;4942864;28;20483;-91
2023/07/12 04:57:20;;;;;;;13.27;4.13;;;;;;;14.47;100.00;100826.28;4979347;28;20058;-90
2023/07/12 04:59:46;;;;;;;8.20;3.55;;;;;;;14.51;100.00;100820.06;4961681;28;20130;-91
2023/07/12 05:02:11;;;;;;;9.90;3.70;;;;;;;14.56;100.00;100822.91;4977033;28;20148;-90
2023/07/12 05:04:36;;;;;;;14.93;3.88;;;;;;;14.64;100.00;100834.53;4977909;28;20045;-90
2023/07/12 05:07:11;;;;;;;7.87;3.33;;;;;;;14.63;100.00;100830.13;4980505;28;20037;-90
2023/07/12 05:09:45;;;;;;;8.20;3.70;;;;;;;14.66;100.00;100833.22;4981016;28;20065;-90
2023/07/12 05:12:13;;;;;;;12.87;3.17;;;;;;;14.73;100.00;100844.00;4965204;28;20031;-92
2023/07/12 05:14:39;;;;;;;9.80;3.45;;;;;;;14.83;100.00;100846.94;4964408;28;20038;-92
2023/07/12 05:17:05;;;;;;;10.85;3.53;;;;;;;15.09;100.00;100853.72;4980463;28;20030;-89
2023/07/12 05:19:31;;;;;;;9.77;3.90;;;;;;;15.38;100.00;100858.28;4980199;28;20041;-88
2023/07/12 05:21:56;;;;;;;10.40;3.63;;;;;;;15.56;100.00;100852.59;4997895;28;20030;-89
2023/07/12 05:24:22;;;;;;;9.50;3.37;;;;;;;15.59;100.00;100857.56;4997747;28;20023;-89
2023/07/12 05:26:47;;;;;;;8.77;3.47;;;;;;;15.65;100.00;100868.56;4980404;28;20041;-90
2023/07/12 05:29:13;;;;;;;8.17;3.40;;;;;;;15.67;100.00;100870.00;4998900;28;20042;-96
2023/07/12 05:31:38;;;;;;;10.13;3.40;;;;;;;15.79;100.00;100878.97;4966920;28;20038;-95
2023/07/12 05:34:04;;;;;;;8.63;3.30;;;;;;;15.87;100.00;100864.06;4983767;28;20113;-96
2023/07/12 05:36:29;;;;;;;6.43;2.97;;;;;;;15.83;100.00;100854.69;4983208;28;20475;-94
2023/07/12 05:39:04;;;;;;;6.20;2.93;;;;;;;15.84;100.00;100869.19;4999796;28;20041;-93
2023/07/12 05:41:32;;;;;;;7.60;2.78;;;;;;;15.76;100.00;100860.28;4981337;28;20022;-94
2023/07/12 05:44:00;;;;;;;9.02;2.85;;;;;;;15.82;100.00;100860.41;4984003;28;20121;-96
2023/07/12 05:46:30;;;;;;;8.77;2.97;;;;;;;15.77;100.00;100861.13;4982056;28;20034;-94
2023/07/12 05:48:56;;;;;;;12.63;3.33;;;;;;;15.73;100.00;100868.16;4983352;28;20039;-96
2023/07/12 05:51:23;;;;;;;6.93;3.00;;;;;;;15.74;100.00;100878.88;4985287;28;20085;-95
2023/07/12 05:53:49;;;;;;;8.30;3.13;;;;;;;15.79;100.00;100872.66;5001605;28;20281;-96
2023/07/12 05:56:16;;;;;;;8.45;3.40;;;;;;;15.82;100.00;100868.63;4966791;28;20034;-95
2023/07/12 05:58:43;;;;;;;13.50;3.33;;;;;;;15.74;100.00;100856.16;4981512;28;20058;-95
2023/07/12 06:01:08;;;;;;;8.15;3.15;;;;;;;15.75;100.00;100877.78;4980638;28;20026;-96
2023/07/12 06:03:34;;;;;;;9.02;3.35;;;;;;;15.78;100.00;100892.88;4980927;28;20492;-95
2023/07/12 06:06:10;;;;;;;;;;;;;;;;;;;;;
2023/07/12 06:08:36;;;;;;;9.40;3.40;;;;;;;15.83;100.00;100876.56;4998959;28;20025;-96
2023/07/12 06:11:02;;;;;;;10.57;3.88;;;;;;;15.89;100.00;100880.22;4982183;28;20034;-95
2023/07/12 06:13:30;;;;;;;9.07;3.50;;;;;;;15.94;100.00;100875.66;4998067;28;20035;-92
2023/07/12 06:15:58;;;;;;;8.00;3.17;;;;;;;16.08;100.00;100889.00;4996550;28;20041;-92
2023/07/12 06:18:26;;;;;;;10.80;3.88;;;;;;;16.17;100.00;100895.69;4963895;28;20383;-91
2023/07/12 06:20:58;;;;;;;8.77;3.47;;;;;;;16.19;100.00;100882.56;4979373;28;20030;-92
2023/07/12 06:23:27;;;;;;;8.40;4.00;;;;;;;16.34;100.00;100895.63;4979160;28;20056;-91
2023/07/12 06:26:10;;;;;;;;;;;;;;;;;;;;;
2023/07/12 06:28:36;;;;;;;11.15;4.13;;;;;;;16.37;100.00;100892.41;4997680;28;20032;-91
2023/07/12 06:31:05;;;;;;;13.07;4.17;;;;;;;16.37;100.00;100902.53;4978953;28;20022;-92
2023/07/12 06:33:38;;;;;;;8.25;3.88;;;;;;;16.55;100.00;100909.59;4979831;28;20030;-91
2023/07/12 06:36:06;;;;;;;11.68;3.65;;;;;;;16.74;100.00;100901.91;4979325;28;20037;-90
2023/07/12 06:38:35;;;;;;;11.57;3.28;;;;;;;16.90;100.00;100927.59;4979538;28;20077;-92
2023/07/12 06:41:02;;;;;;;11.30;3.40;;;;;;;16.95;100.00;100919.47;4996652;28;20034;-92
2023/07/12 06:43:28;;;;;;;9.90;3.55;;;;;;;17.14;100.00;100933.63;4978964;28;20026;-91
2023/07/12 06:45:55;;;;;;;11.83;3.57;;;;;;;17.30;100.00;100923.66;4978420;28;20538;-92
2023/07/12 06:48:21;;;;;;;10.52;3.20;;;;;;;17.35;100.00;100921.78;4978535;28;20026;-91
2023/07/12 06:50:51;;;;;;;6.38;2.40;;;;;;;17.40;100.00;100929.25;4980461;28;20105;-92
2023/07/12 06:53:17;;;;;;;13.57;3.00;;;;;;;17.53;100.00;100930.75;4997121;28;20030;-91
2023/07/12 06:55:44;;;;;;;8.25;2.67;;;;;;;17.62;100.00;100953.88;4980308;28;20034;-92
2023/07/12 06:58:13;;;;;;;5.70;2.40;;;;;;;17.67;100.00;100937.47;4979023;28;20553;-91
2023/07/12 07:00:48;;;;;;;10.40;2.67;;;;;;;17.68;100.00;100947.34;4996766;28;20121;-92
2023/07/12 07:03:15;;;;;;;13.77;2.83;;;;;;;17.73;100.00;100952.06;4979576;28;20030;-91
2023/07/12 07:05:44;;;;;;;5.57;2.53;;;;;;;17.90;100.00;100962.94;4980159;28;20463;-92
2023/07/12 07:08:11;;;;;;;11.52;2.88;;;;;;;17.93;100.00;100959.66;4979347;28;20088;-92
2023/07/12 07:10:37;;;;;;;8.80;2.90;;;;;;;17.96;100.00;100950.91;4983187;28;20041;-91
2023/07/12 07:13:02;;;;;;;7.43;2.53;;;;;;;17.99;100.00;100955.84;4980454;28;20027;-92
2023/07/12 07:15:28;;;;;;;6.43;2.57;;;;;;;18.06;100.00;100953.72;4978734;28;20038;-92
2023/07/12 07:17:53;;;;;;;14.02;2.78;;;;;;;18.09;98.79;100955.13;4995764;28;20058;-92
2023/07/12 07:20:19;;;;;;;6.47;2.70;;;;;;;18.18;98.44;100945.28;4978288;28;20485;-93
2023/07/12 07:22:44;;;;;;;11.07;2.77;;;;;;;18.31;99.68;100954.19;4978460;28;20109;-93
2023/07/12 07:25:11;;;;;;;7.90;3.05;;;;;;;18.38;96.68;100963.84;4979058;28;20035;-92
2023/07/12 07:27:36;;;;;;;8.32;3.03;;;;;;;18.48;95.44;100965.81;4978620;28;20030;-92
2023/07/12 07:30:02;;;;;;;9.10;2.80;;;;;;;18.69;94.85;100976.91;4978117;28;20034;-91
2023/07/12 07:32:28;;;;;;;6.93;2.43;;;;;;;18.71;94.95;100972.81;4961976;28;20394;-92
2023/07/12 07:34:53;;;;;;;8.90;2.40;;;;;;;18.72;94.09;100979.13;4962333;28;20542;-91
2023/07/12 07:37:21;;;;;;;8.00;3.00;;;;;;;18.75;93.79;100986.84;4995245;28;20030;-92
2023/07/12 07:39:53;;;;;;;9.18;2.47;;;;;;;18.66;92.96;100983.78;4962537;28;20038;-93
2023/07/12 07:42:18;;;;;;;9.77;2.25;;;;;;;18.77;92.10;100979.97;4978010;28;20049;-91
2023/07/12 07:44:46;;;;;;;7.40;2.70;;;;;;;18.74;91.95;100988.75;4977190;28;20121;-90
2023/07/12 07:47:14;;;;;;;10.43;2.75;;;;;;;18.76;90.20;100991.25;4977467;28;20513;-91
2023/07/12 07:49:42;;;;;;;10.48;2.58;;;;;;;18.90;90.31;100986.13;4961755;28;20037;-91
2023/07/12 07:52:08;;;;;;;7.80;2.95;;;;;;;19.22;89.09;100987.88;4961192;28;20038;-90
2023/07/12 07:54:33;;;;;;;9.93;2.77;;;;;;;19.26;86.74;100984.31;4961446;28;20491;-90
2023/07/12 07:56:59;;;;;;;9.10;2.80;;;;;;;19.08;87.95;101002.16;4961005;28;20034;-92
2023/07/12 07:59:24;;;;;;;7.33;2.77;;;;;;;19.05;88.06;101010.13;4977125;28;20124;-91
2023/07/12 08:01:49;;;;;;;7.22;2.70;;;;;;;18.99;87.49;100998.25;4977502;28;20030;-90
2023/07/12 08:04:15;;;;;;;7.20;2.57;;;;;;;19.06;87.92;101006.25;4977300;28;20026;-89
2023/07/12 08:06:43;;;;;;;8.27;2.63;;;;;;;19.08;87.74;101004.91;4994127;28;20041;-89
2023/07/12 08:09:11;;;;;;;9.20;2.97;;;;;;;19.14;88.38;101011.25;4961372;28;20031;-93
2023/07/12 08:11:37;;;;;;;7.00;2.70;;;;;;;19.00;87.54;101010.94;4977769;28;20036;-93
2023/07/12 08:14:03;;;;;;;7.23;2.73;;;;;;;18.85;87.66;101017.16;4977714;28;20026;-93
2023/07/12 08:16:39;;;;;;;9.40;2.70;;;;;;;18.76;87.33;101029.72;4977644;28;20116;-92
2023/07/12 08:19:05;;;;;;;9.40;3.28;;;;;;;18.74;87.83;101008.00;4963242;28;20451;-93
2023/07/12 08:21:36;;;;;;;11.33;3.30;;;;;;;18.84;88.40;101010.00;4977327;28;20123;-93
2023/07/12 08:24:04;;;;;;;7.60;3.10;;;;;;;18.97;87.87;101029.88;4977809;28;20362;-91
2023/07/12 08:26:30;;;;;;;11.75;3.00;;;;;;;18.79;87.46;101020.94;4977355;28;20394;-92
2023/07/12 08:29:01;;;;;;;10.93;3.13;;;;;;;18.77;87.82;101021.22;4961457;28;20035;-94
2023/07/12 08:31:32;;;;;;;8.13;2.90;;;;;;;18.76;88.82;101022.31;4977443;28;20034;-93
2023/07/12 08:34:03;;;;;;;7.30;3.03;;;;;;;18.93;87.67;101024.91;4978149;28;20034;-91
2023/07/12 08:36:28;;;;;;;10.23;3.83;;;;;;;19.05;87.79;101026.63;4961710;28;20038;-94
2023/07/12 08:38:56;;;;;;;8.83;3.23;;;;;;;19.18;86.74;101034.38;4977236;28;20035;-95
2023/07/12 08:41:24;;;;;;;10.55;3.10;;;;;;;19.21;85.00;101033.84;4981781;28;20042;-95
2023/07/12 08:43:51;;;;;;;9.05;3.22;;;;;;;19.27;84.74;101032.75;4982388;28;20112;-95
2023/07/12 08:46:25;;;;;;;8.73;3.47;;;;;;;19.33;83.44;101027.28;4982518;28;20045;-95
2023/07/12 08:48:59;;;;;;;9.20;3.33;;;;;;;19.35;83.99;101039.66;4999832;28;20041;-93
2023/07/12 08:51:35;;;;;;;9.20;3.33;;;;;;;19.39;84.19;101026.19;4981961;28;20459;-94
2023/07/12 08:54:04;;;;;;;8.25;3.33;;;;;;;19.47;84.00;101039.41;4981602;28;20034;-94
2023/07/12 08:56:33;;;;;;;10.30;3.30;;;;;;;19.54;82.66;101044.66;4981752;28;20037;-94
2023/07/12 08:59:10;;;;;;;11.43;3.60;;;;;;;19.49;84.16;101055.66;4981353;28;20541;-93
2023/07/12 09:01:42;;;;;;;8.45;3.63;;;;;;;19.33;82.81;101058.34;4966056;28;20072;-91
2023/07/12 09:04:21;;;;;;;9.02;3.20;;;;;;;19.35;83.17;101044.34;4980800;28;20070;-90
2023/07/12 09:07:07;;;;;;;13.48;3.97;;;;;;;19.59;81.87;101028.16;4981087;28;20524;-93
2023/07/12 09:09:41;;;;;;;11.60;3.20;;;;;;;19.97;81.87;101045.31;4981772;28;20121;-91
2023/07/12 09:12:23;;;;;;;12.37;3.00;;;;;;;20.23;77.78;101042.59;4998459;28;20109;-89
2023/07/12 09:14:53;;;;;;;8.32;2.60;;;;;;;20.21;78.42;101039.28;4997896;28;20023;-90
2023/07/12 09:17:34;;;;;;;;;;;;;;;;;;;;;
2023/07/12 09:20:01;;;;;;;5.78;2.70;;;;;;;20.36;76.12;101028.25;4998647;28;20072;-89
2023/07/12 09:22:29;;;;;;;9.68;3.38;;;;;;;20.25;75.90;101029.38;4980195;28;20036;-89
2023/07/12 09:24:58;;;;;;;7.10;3.53;;;;;;;20.30;75.80;101021.13;4980214;28;20070;-89
2023/07/12 09:27:25;;;;;;;8.40;4.35;;;;;;;20.29;74.46;101024.97;4963626;28;20129;-89
2023/07/12 09:30:03;;;;;;;10.00;3.10;;;;;;;20.32;75.27;101050.03;4981011;28;20474;-90
2023/07/12 09:32:34;;;;;;;6.60;3.10;;;;;;;20.58;73.56;101040.91;4980720;28;20038;-89
2023/07/12 09:35:02;;;;;;;7.57;2.83;;;;;;;20.73;74.79;101037.31;4980508;28;20134;-90
2023/07/12 09:37:34;;;;;;;8.00;2.93;;;;;;;20.73;73.14;101023.53;4980036;28;20117;-89
2023/07/12 09:40:04;;;;;;;10.48;3.10;;;;;;;20.84;71.94;101025.97;4979522;28;20030;-89
2023/07/12 09:42:32;;;;;;;8.93;3.17;;;;;;;20.98;73.53;101022.66;4979786;28;20034;-91
2023/07/12 09:45:04;;;;;;;10.25;2.90;;;;;;;20.99;73.36;101019.63;4963391;28;20041;-89
2023/07/12 09:47:45;;;;;;;12.05;3.58;;;;;;;21.03;74.24;101040.00;4980587;28;20061;-90
2023/07/12 09:50:30;;;;;;;10.00;2.90;;;;;;;20.88;71.10;101026.25;4980001;28;20039;-91
2023/07/12 09:53:20;;;;;;;6.68;2.70;;;;;;;20.83;71.49;101015.22;4979233;28;20038;-89
2023/07/12 09:55:58;;;;;;;6.30;2.95;;;;;;;20.98;71.90;101012.44;4979676;28;20041;-89
2023/07/12 09:58:53;;;;;;;9.45;2.53;;;;;;;21.09;71.05;100999.41;4979116;28;20054;-89
2023/07/12 10:01:37;;;;;;;6.93;2.20;;;;;;;21.47;69.73;101013.59;4971274;28;20034;-89
2023/07/12 10:04:34;;;;;;;4.87;1.93;;;;;;;21.38;67.21;101016.13;4979717;28;20069;-89
2023/07/12 10:07:12;;;;;;;7.22;2.53;;;;;;;21.25;67.83;101002.13;4979111;28;20026;-89
2023/07/12 10:09:39;;;;;;;7.63;1.70;;;;;;;21.33;66.84;100991.31;4979485;28;20383;-90
2023/07/12 10:12:23;;;;;;;4.72;1.77;;;;;;;21.49;66.67;100997.56;4963204;28;20081;-89
2023/07/12 10:14:51;;;;;;;7.60;2.20;;;;;;;21.75;64.48;101013.16;4979866;28;20053;-89
2023/07/12 10:17:23;;;;;;;12.17;3.07;;;;;;;21.70;64.43;101000.22;4978662;28;20034;-89
2023/07/12 10:19:55;;;;;;;14.82;2.78;;;;;;;21.52;64.57;101002.53;4996435;28;20034;-90
2023/07/12 10:22:32;;;;;;;7.90;2.22;;;;;;;21.38;64.52;101013.34;4996527;28;20109;-89
2023/07/12 10:25:10;;;;;;;8.70;2.42;;;;;;;21.46;65.79;101008.34;4996774;28;20034;-89
2023/07/12 10:27:46;;;;;;;7.95;2.33;;;;;;;21.62;65.72;101014.63;4979232;28;20117;-89
2023/07/12 10:30:26;;;;;;;10.40;2.80;;;;;;;21.96;66.11;101009.13;4979133;28;20034;-89
2023/07/12 10:33:20;;;;;;;7.55;2.40;;;;;;;22.00;65.92;101010.22;4996414;28;20076;-89
2023/07/12 10:35:55;;;;;;;6.50;2.35;;;;;;;21.99;66.35;101016.03;4978460;28;20030;-89
2023/07/12 10:38:23;;;;;;;7.35;1.95;;;;;;;22.16;66.52;100999.88;4971759;28;20038;-89
2023/07/12 10:40:57;;;;;;;7.63;2.05;;;;;;;22.29;64.64;101005.81;4977949;28;20383;-89
2023/07/12 10:43:34;;;;;;;5.27;2.33;;;;;;;22.42;65.05;101010.69;4978188;28;20031;-89
2023/07/12 10:46:20;;;;;;;7.63;1.90;;;;;;;22.35;63.22;101015.75;4979061;28;20038;-89
2023/07/12 10:48:52;;;;;;;8.65;2.35;;;;;;;22.50;61.78;101007.31;4967897;28;20045;-90
2023/07/12 10:51:33;;;;;;;5.88;1.90;;;;;;;22.56;61.73;101019.16;4970519;28;20102;-89
2023/07/12 10:53:59;;;;;;;9.18;2.05;;;;;;;22.59;61.72;101016.63;4979056;28;20037;-89
2023/07/12 10:56:37;;;;;;;9.27;2.40;;;;;;;22.99;62.39;101010.91;4978108;28;20018;-90
2023/07/12 10:59:30;;;;;;;10.10;2.35;;;;;;;23.15;59.53;101017.13;4995677;28;20111;-89
2023/07/12 11:02:09;;;;;;;10.10;1.93;;;;;;;22.90;58.95;101021.81;4978788;28;20045;-90
2023/07/12 11:04:47;;;;;;;10.48;2.40;;;;;;;22.93;58.68;101018.44;4978486;28;20041;-89
2023/07/12 11:07:15;;;;;;;6.07;2.10;;;;;;;22.83;58.52;101028.81;4979011;28;20038;-89
2023/07/12 11:09:44;;;;;;;10.57;2.05;;;;;;;22.57;59.84;101024.38;4995501;28;20533;-89
2023/07/12 11:12:33;;;;;;;5.15;2.20;;;;;;;22.39;59.49;101016.81;4977684;28;20039;-90
2023/07/12 11:15:17;;;;;;;10.30;2.50;;;;;;;22.85;59.00;101027.38;4995863;28;20059;-90
2023/07/12 11:18:07;;;;;;;16.27;2.50;;;;;;;23.22;58.25;101016.75;4978285;28;20121;-90
2023/07/12 11:20:54;;;;;;;8.95;2.30;;;;;;;23.80;55.18;101013.69;4978149;28;20041;-90
2023/07/12 11:23:26;;;;;;;7.10;2.10;;;;;;;23.97;54.59;101018.72;4969927;28;20064;-89
2023/07/12 11:26:17;;;;;;;6.28;2.15;;;;;;;25.09;52.14;101005.06;4978338;28;20030;-89
2023/07/12 11:28:46;;;;;;;8.87;1.80;;;;;;;26.95;45.10;100993.81;4976872;28;20042;-89
2023/07/12 11:31:33;;;;;;;10.80;1.83;;;;;;;27.91;42.35;101007.03;4977406;28;20026;-89
2023/07/12 11:34:16;;;;;;;6.07;1.75;;;;;;;26.06;45.83;101015.94;4978564;28;20470;-89
2023/07/12 11:36:49;;;;;;;5.30;1.65;;;;;;;24.55;48.69;101015.78;4977610;28;20113;-89